sensor_id;sensor_type;location;lat;lon;timestamp;P1;durP1;ratioP1;P2;durP2;ratioP2
67248;SDS011;63247;54.300;18.592;2022-10-12T00:00:56;10.23;;;1.90;;
67248;SDS011;63247;54.300;18.592;2022-10-12T00:03:22;11.53;;;1.87;;
67248;SDS011;63247;54.300;18.592;2022-10-12T00:05:58;10.98;;;1.98;;
67248;SDS011;63247;54.300;18.592;2022-10-12T00:08:32;10.87;;;1.83;;
67248;SDS011;63247;54.300;18.592;2022-10-12T00:10:59;9.85;;;1.90;;
67248;SDS011;63247;54.300;18.592;2022-10-12T00:13:24;11.45;;;1.83;;
67248;SDS011;63247;54.300;18.592;2022-10-12T00:15:50;10.70;;;1.95;;
67248;SDS011;63247;54.300;18.592;2022-10-12T00:18:16;9.37;;;1.67;;
67248;SDS011;63247;54.300;18.592;2022-10-12T00:20:41;12.87;;;2.00;;
67248;SDS011;63247;54.300;18.592;2022-10-12T00:23:07;12.88;;;1.77;;
67248;SDS011;63247;54.300;18.592;2022-10-12T00:25:36;9.00;;;1.73;;
67248;SDS011;63247;54.300;18.592;2022-10-12T00:28:02;9.75;;;1.80;;
67248;SDS011;63247;54.300;18.592;2022-10-12T00:30:28;8.20;;;1.90;;
67248;SDS011;63247;54.300;18.592;2022-10-12T00:32:53;11.40;;;1.50;;
67248;SDS011;63247;54.300;18.592;2022-10-12T00:35:19;11.03;;;1.87;;
67248;SDS011;63247;54.300;18.592;2022-10-12T00:37:44;13.32;;;2.15;;
67248;SDS011;63247;54.300;18.592;2022-10-12T00:40:10;8.80;;;1.73;;
67248;SDS011;63247;54.300;18.592;2022-10-12T00:42:35;8.98;;;1.80;;
67248;SDS011;63247;54.300;18.592;2022-10-12T00:45:01;10.60;;;1.80;;
67248;SDS011;63247;54.300;18.592;2022-10-12T00:47:31;9.57;;;2.00;;
67248;SDS011;63247;54.300;18.592;2022-10-12T00:50:03;6.32;;;1.60;;
67248;SDS011;63247;54.300;18.592;2022-10-12T00:52:39;8.20;;;1.50;;
67248;SDS011;63247;54.300;18.592;2022-10-12T00:55:28;6.60;;;1.33;;
67248;SDS011;63247;54.300;18.592;2022-10-12T00:57:58;9.88;;;1.63;;
67248;SDS011;63247;54.300;18.592;2022-10-12T01:00:24;8.55;;;1.67;;
67248;SDS011;63247;54.300;18.592;2022-10-12T01:02:50;9.47;;;2.00;;
67248;SDS011;63247;54.300;18.592;2022-10-12T01:05:18;10.27;;;1.60;;
67248;SDS011;63247;54.300;18.592;2022-10-12T01:07:44;8.30;;;1.60;;
67248;SDS011;63247;54.300;18.592;2022-10-12T01:10:09;6.10;;;1.20;;
67248;SDS011;63247;54.300;18.592;2022-10-12T01:12:35;8.20;;;1.40;;
67248;SDS011;63247;54.300;18.592;2022-10-12T01:15:05;5.15;;;1.27;;
67248;SDS011;63247;54.300;18.592;2022-10-12T01:17:43;6.60;;;1.40;;
67248;SDS011;63247;54.300;18.592;2022-10-12T01:20:30;8.13;;;1.60;;
67248;SDS011;63247;54.300;18.592;2022-10-12T01:31:15;10.27;;;1.50;;
67248;SDS011;63247;54.300;18.592;2022-10-12T01:33:50;9.10;;;1.60;;
67248;SDS011;63247;54.300;18.592;2022-10-12T01:36:34;10.07;;;1.60;;
67248;SDS011;63247;54.300;18.592;2022-10-12T01:39:20;9.77;;;1.58;;
67248;SDS011;63247;54.300;18.592;2022-10-12T01:41:59;6.53;;;1.77;;
67248;SDS011;63247;54.300;18.592;2022-10-12T01:44:28;9.03;;;1.40;;
67248;SDS011;63247;54.300;18.592;2022-10-12T01:46:54;8.15;;;1.48;;
67248;SDS011;63247;54.300;18.592;2022-10-12T01:49:22;9.18;;;1.63;;
67248;SDS011;63247;54.300;18.592;2022-10-12T01:54:25;9.40;;;1.57;;
67248;SDS011;63247;54.300;18.592;2022-10-12T01:57:08;7.68;;;1.25;;
67248;SDS011;63247;54.300;18.592;2022-10-12T02:02:34;7.57;;;1.25;;
67248;SDS011;63247;54.300;18.592;2022-10-12T02:05:26;11.07;;;2.10;;
67248;SDS011;63247;54.300;18.592;2022-10-12T02:07:56;12.77;;;2.47;;
67248;SDS011;63247;54.300;18.592;2022-10-12T02:10:32;7.97;;;2.00;;
67248;SDS011;63247;54.300;18.592;2022-10-12T02:13:01;7.10;;;2.28;;
67248;SDS011;63247;54.300;18.592;2022-10-12T02:15:31;14.73;;;2.20;;
67248;SDS011;63247;54.300;18.592;2022-10-12T02:17:58;5.90;;;1.88;;
67248;SDS011;63247;54.300;18.592;2022-10-12T02:20:28;9.80;;;1.50;;
67248;SDS011;63247;54.300;18.592;2022-10-12T02:22:56;9.77;;;1.50;;
67248;SDS011;63247;54.300;18.592;2022-10-12T02:25:22;11.07;;;1.35;;
67248;SDS011;63247;54.300;18.592;2022-10-12T02:28:25;9.98;;;1.60;;
67248;SDS011;63247;54.300;18.592;2022-10-12T02:30:51;6.77;;;1.40;;
67248;SDS011;63247;54.300;18.592;2022-10-12T02:33:31;5.78;;;1.13;;
67248;SDS011;63247;54.300;18.592;2022-10-12T02:36:04;9.10;;;1.58;;
67248;SDS011;63247;54.300;18.592;2022-10-12T02:38:36;10.32;;;1.60;;
67248;SDS011;63247;54.300;18.592;2022-10-12T02:41:07;7.03;;;1.50;;
67248;SDS011;63247;54.300;18.592;2022-10-12T02:46:14;10.50;;;1.35;;
67248;SDS011;63247;54.300;18.592;2022-10-12T02:48:41;8.75;;;1.40;;
67248;SDS011;63247;54.300;18.592;2022-10-12T02:51:09;9.85;;;1.30;;
67248;SDS011;63247;54.300;18.592;2022-10-12T02:53:35;9.30;;;1.55;;
67248;SDS011;63247;54.300;18.592;2022-10-12T02:56:03;5.93;;;1.23;;
67248;SDS011;63247;54.300;18.592;2022-10-12T02:58:32;6.97;;;1.70;;
67248;SDS011;63247;54.300;18.592;2022-10-12T03:00:58;6.25;;;1.30;;
67248;SDS011;63247;54.300;18.592;2022-10-12T03:03:23;10.37;;;1.40;;
67248;SDS011;63247;54.300;18.592;2022-10-12T03:05:49;8.73;;;1.67;;
67248;SDS011;63247;54.300;18.592;2022-10-12T03:08:14;6.90;;;1.65;;
67248;SDS011;63247;54.300;18.592;2022-10-12T03:10:40;5.20;;;1.50;;
67248;SDS011;63247;54.300;18.592;2022-10-12T03:13:05;9.70;;;1.60;;
67248;SDS011;63247;54.300;18.592;2022-10-12T03:15:30;8.93;;;2.03;;
67248;SDS011;63247;54.300;18.592;2022-10-12T03:17:56;7.43;;;1.43;;
67248;SDS011;63247;54.300;18.592;2022-10-12T03:20:21;5.57;;;1.60;;
67248;SDS011;63247;54.300;18.592;2022-10-12T03:22:47;8.53;;;1.80;;
67248;SDS011;63247;54.300;18.592;2022-10-12T03:25:12;8.17;;;1.73;;
67248;SDS011;63247;54.300;18.592;2022-10-12T03:27:38;5.93;;;1.70;;
67248;SDS011;63247;54.300;18.592;2022-10-12T03:30:03;10.33;;;1.77;;
67248;SDS011;63247;54.300;18.592;2022-10-12T03:32:29;11.13;;;2.03;;
67248;SDS011;63247;54.300;18.592;2022-10-12T03:34:55;7.53;;;2.00;;
67248;SDS011;63247;54.300;18.592;2022-10-12T03:37:20;8.80;;;2.03;;
67248;SDS011;63247;54.300;18.592;2022-10-12T03:39:46;8.93;;;2.20;;
67248;SDS011;63247;54.300;18.592;2022-10-12T03:42:11;7.20;;;2.00;;
67248;SDS011;63247;54.300;18.592;2022-10-12T03:44:37;6.70;;;1.90;;
67248;SDS011;63247;54.300;18.592;2022-10-12T03:47:03;10.13;;;1.98;;
67248;SDS011;63247;54.300;18.592;2022-10-12T03:49:28;6.63;;;1.83;;
67248;SDS011;63247;54.300;18.592;2022-10-12T03:51:54;6.40;;;1.80;;
67248;SDS011;63247;54.300;18.592;2022-10-12T03:54:19;7.23;;;2.10;;
67248;SDS011;63247;54.300;18.592;2022-10-12T03:56:45;12.30;;;2.23;;
67248;SDS011;63247;54.300;18.592;2022-10-12T03:59:10;8.30;;;2.00;;
67248;SDS011;63247;54.300;18.592;2022-10-12T04:01:35;6.10;;;2.00;;
67248;SDS011;63247;54.300;18.592;2022-10-12T04:04:01;7.23;;;1.97;;
67248;SDS011;63247;54.300;18.592;2022-10-12T04:06:26;10.60;;;2.20;;
67248;SDS011;63247;54.300;18.592;2022-10-12T04:08:52;11.03;;;2.43;;
67248;SDS011;63247;54.300;18.592;2022-10-12T04:11:17;8.50;;;2.03;;
67248;SDS011;63247;54.300;18.592;2022-10-12T04:13:44;8.30;;;2.10;;
67248;SDS011;63247;54.300;18.592;2022-10-12T04:16:09;8.30;;;2.13;;
67248;SDS011;63247;54.300;18.592;2022-10-12T04:18:35;8.10;;;2.30;;
67248;SDS011;63247;54.300;18.592;2022-10-12T04:21:01;10.83;;;2.37;;
67248;SDS011;63247;54.300;18.592;2022-10-12T04:23:27;12.77;;;2.50;;
67248;SDS011;63247;54.300;18.592;2022-10-12T04:25:53;6.47;;;2.10;;
67248;SDS011;63247;54.300;18.592;2022-10-12T04:28:18;9.60;;;2.40;;
67248;SDS011;63247;54.300;18.592;2022-10-12T04:30:44;9.87;;;2.40;;
67248;SDS011;63247;54.300;18.592;2022-10-12T04:33:11;8.45;;;2.15;;
67248;SDS011;63247;54.300;18.592;2022-10-12T04:35:37;7.50;;;2.20;;
67248;SDS011;63247;54.300;18.592;2022-10-12T04:38:02;9.87;;;2.47;;
67248;SDS011;63247;54.300;18.592;2022-10-12T04:40:28;7.13;;;2.10;;
67248;SDS011;63247;54.300;18.592;2022-10-12T04:42:53;9.43;;;2.90;;
67248;SDS011;63247;54.300;18.592;2022-10-12T04:45:20;12.73;;;2.80;;
67248;SDS011;63247;54.300;18.592;2022-10-12T04:47:46;6.93;;;2.63;;
67248;SDS011;63247;54.300;18.592;2022-10-12T04:50:11;10.57;;;2.90;;
67248;SDS011;63247;54.300;18.592;2022-10-12T04:52:37;8.70;;;2.40;;
67248;SDS011;63247;54.300;18.592;2022-10-12T04:55:03;9.70;;;2.90;;
67248;SDS011;63247;54.300;18.592;2022-10-12T04:57:28;14.32;;;3.05;;
67248;SDS011;63247;54.300;18.592;2022-10-12T04:59:54;13.50;;;3.20;;
67248;SDS011;63247;54.300;18.592;2022-10-12T05:02:20;7.90;;;2.73;;
67248;SDS011;63247;54.300;18.592;2022-10-12T05:04:45;14.57;;;2.73;;
67248;SDS011;63247;54.300;18.592;2022-10-12T05:07:11;9.70;;;2.70;;
67248;SDS011;63247;54.300;18.592;2022-10-12T05:09:36;13.70;;;2.90;;
67248;SDS011;63247;54.300;18.592;2022-10-12T05:12:02;13.23;;;3.33;;
67248;SDS011;63247;54.300;18.592;2022-10-12T05:14:27;11.27;;;3.10;;
67248;SDS011;63247;54.300;18.592;2022-10-12T05:16:52;12.07;;;3.10;;
67248;SDS011;63247;54.300;18.592;2022-10-12T05:19:18;13.13;;;3.30;;
67248;SDS011;63247;54.300;18.592;2022-10-12T05:21:43;11.47;;;3.00;;
67248;SDS011;63247;54.300;18.592;2022-10-12T05:24:09;11.73;;;3.00;;
67248;SDS011;63247;54.300;18.592;2022-10-12T05:26:34;8.90;;;2.90;;
67248;SDS011;63247;54.300;18.592;2022-10-12T05:29:00;10.38;;;2.58;;
67248;SDS011;63247;54.300;18.592;2022-10-12T05:31:25;14.70;;;3.37;;
67248;SDS011;63247;54.300;18.592;2022-10-12T05:33:51;10.80;;;2.90;;
67248;SDS011;63247;54.300;18.592;2022-10-12T05:36:16;12.73;;;3.10;;
67248;SDS011;63247;54.300;18.592;2022-10-12T05:38:42;18.10;;;3.10;;
67248;SDS011;63247;54.300;18.592;2022-10-12T05:41:07;12.57;;;2.97;;
67248;SDS011;63247;54.300;18.592;2022-10-12T05:43:33;11.97;;;2.93;;
67248;SDS011;63247;54.300;18.592;2022-10-12T05:45:58;12.20;;;2.70;;
67248;SDS011;63247;54.300;18.592;2022-10-12T05:48:24;9.90;;;2.75;;
67248;SDS011;63247;54.300;18.592;2022-10-12T05:50:52;8.07;;;2.23;;
67248;SDS011;63247;54.300;18.592;2022-10-12T05:53:19;9.55;;;2.22;;
67248;SDS011;63247;54.300;18.592;2022-10-12T05:55:55;5.37;;;2.00;;
67248;SDS011;63247;54.300;18.592;2022-10-12T05:58:22;7.18;;;2.03;;
67248;SDS011;63247;54.300;18.592;2022-10-12T06:00:49;6.93;;;2.10;;
67248;SDS011;63247;54.300;18.592;2022-10-12T06:03:14;6.97;;;1.90;;
67248;SDS011;63247;54.300;18.592;2022-10-12T06:05:41;6.83;;;1.97;;
67248;SDS011;63247;54.300;18.592;2022-10-12T06:08:07;6.18;;;2.00;;
67248;SDS011;63247;54.300;18.592;2022-10-12T06:10:33;8.57;;;2.03;;
67248;SDS011;63247;54.300;18.592;2022-10-12T06:12:59;7.25;;;2.00;;
67248;SDS011;63247;54.300;18.592;2022-10-12T06:15:25;9.30;;;1.83;;
67248;SDS011;63247;54.300;18.592;2022-10-12T06:17:51;5.82;;;2.00;;
67248;SDS011;63247;54.300;18.592;2022-10-12T06:20:16;7.27;;;2.23;;
67248;SDS011;63247;54.300;18.592;2022-10-12T06:22:42;9.90;;;2.30;;
67248;SDS011;63247;54.300;18.592;2022-10-12T06:25:07;9.90;;;2.17;;
67248;SDS011;63247;54.300;18.592;2022-10-12T06:27:33;6.72;;;1.98;;
67248;SDS011;63247;54.300;18.592;2022-10-12T06:29:58;7.57;;;2.20;;
67248;SDS011;63247;54.300;18.592;2022-10-12T06:32:24;8.07;;;1.90;;
67248;SDS011;63247;54.300;18.592;2022-10-12T06:34:49;9.32;;;2.40;;
67248;SDS011;63247;54.300;18.592;2022-10-12T06:37:15;6.07;;;2.07;;
67248;SDS011;63247;54.300;18.592;2022-10-12T06:39:40;6.33;;;2.00;;
67248;SDS011;63247;54.300;18.592;2022-10-12T06:42:05;6.07;;;2.30;;
67248;SDS011;63247;54.300;18.592;2022-10-12T06:44:32;6.50;;;2.10;;
67248;SDS011;63247;54.300;18.592;2022-10-12T06:46:58;7.17;;;2.10;;
67248;SDS011;63247;54.300;18.592;2022-10-12T06:49:24;12.82;;;2.80;;
67248;SDS011;63247;54.300;18.592;2022-10-12T06:51:49;6.70;;;2.30;;
67248;SDS011;63247;54.300;18.592;2022-10-12T06:54:15;8.70;;;2.70;;
67248;SDS011;63247;54.300;18.592;2022-10-12T06:56:40;9.00;;;2.70;;
67248;SDS011;63247;54.300;18.592;2022-10-12T06:59:06;6.10;;;2.40;;
67248;SDS011;63247;54.300;18.592;2022-10-12T07:01:32;8.33;;;2.40;;
67248;SDS011;63247;54.300;18.592;2022-10-12T07:03:57;9.70;;;2.47;;
67248;SDS011;63247;54.300;18.592;2022-10-12T07:06:23;7.73;;;2.40;;
67248;SDS011;63247;54.300;18.592;2022-10-12T07:08:48;8.48;;;2.47;;
67248;SDS011;63247;54.300;18.592;2022-10-12T07:11:18;6.53;;;2.33;;
67248;SDS011;63247;54.300;18.592;2022-10-12T07:13:43;10.00;;;2.55;;
67248;SDS011;63247;54.300;18.592;2022-10-12T07:16:09;8.17;;;2.23;;
67248;SDS011;63247;54.300;18.592;2022-10-12T07:18:34;7.53;;;2.43;;
67248;SDS011;63247;54.300;18.592;2022-10-12T07:21:00;8.63;;;2.30;;
67248;SDS011;63247;54.300;18.592;2022-10-12T07:23:26;8.07;;;2.50;;
67248;SDS011;63247;54.300;18.592;2022-10-12T07:25:52;9.52;;;2.20;;
67248;SDS011;63247;54.300;18.592;2022-10-12T07:28:18;10.73;;;2.95;;
67248;SDS011;63247;54.300;18.592;2022-10-12T07:30:44;8.50;;;2.40;;
67248;SDS011;63247;54.300;18.592;2022-10-12T07:33:11;8.48;;;2.50;;
67248;SDS011;63247;54.300;18.592;2022-10-12T07:35:36;9.38;;;2.40;;
67248;SDS011;63247;54.300;18.592;2022-10-12T07:38:03;11.77;;;3.03;;
67248;SDS011;63247;54.300;18.592;2022-10-12T07:40:28;7.00;;;2.35;;
67248;SDS011;63247;54.300;18.592;2022-10-12T07:42:54;10.65;;;2.47;;
67248;SDS011;63247;54.300;18.592;2022-10-12T07:45:20;8.63;;;2.78;;
67248;SDS011;63247;54.300;18.592;2022-10-12T07:47:46;8.23;;;2.63;;
67248;SDS011;63247;54.300;18.592;2022-10-12T07:50:11;9.02;;;2.60;;
67248;SDS011;63247;54.300;18.592;2022-10-12T07:52:37;9.35;;;2.40;;
67248;SDS011;63247;54.300;18.592;2022-10-12T07:55:02;11.20;;;2.90;;
67248;SDS011;63247;54.300;18.592;2022-10-12T07:57:28;9.75;;;2.70;;
67248;SDS011;63247;54.300;18.592;2022-10-12T07:59:53;7.97;;;2.50;;
67248;SDS011;63247;54.300;18.592;2022-10-12T08:02:19;6.83;;;2.60;;
67248;SDS011;63247;54.300;18.592;2022-10-12T08:04:45;8.98;;;2.50;;
67248;SDS011;63247;54.300;18.592;2022-10-12T08:07:11;7.50;;;2.50;;
67248;SDS011;63247;54.300;18.592;2022-10-12T08:09:37;7.78;;;2.55;;
67248;SDS011;63247;54.300;18.592;2022-10-12T08:12:02;8.88;;;2.58;;
67248;SDS011;63247;54.300;18.592;2022-10-12T08:14:28;8.48;;;2.20;;
67248;SDS011;63247;54.300;18.592;2022-10-12T08:16:54;6.25;;;2.25;;
67248;SDS011;63247;54.300;18.592;2022-10-12T08:19:19;8.77;;;2.30;;
67248;SDS011;63247;54.300;18.592;2022-10-12T08:21:44;7.47;;;2.23;;
67248;SDS011;63247;54.300;18.592;2022-10-12T08:24:10;9.83;;;2.40;;
67248;SDS011;63247;54.300;18.592;2022-10-12T08:26:36;6.95;;;2.22;;
67248;SDS011;63247;54.300;18.592;2022-10-12T08:29:03;7.70;;;2.53;;
67248;SDS011;63247;54.300;18.592;2022-10-12T08:31:29;9.45;;;2.22;;
67248;SDS011;63247;54.300;18.592;2022-10-12T08:33:57;6.63;;;2.10;;
67248;SDS011;63247;54.300;18.592;2022-10-12T08:36:24;8.43;;;2.40;;
67248;SDS011;63247;54.300;18.592;2022-10-12T08:38:50;8.27;;;2.28;;
67248;SDS011;63247;54.300;18.592;2022-10-12T08:41:23;6.77;;;2.10;;
67248;SDS011;63247;54.300;18.592;2022-10-12T08:46:54;7.30;;;2.28;;
67248;SDS011;63247;54.300;18.592;2022-10-12T08:49:24;11.77;;;2.30;;
67248;SDS011;63247;54.300;18.592;2022-10-12T08:51:52;6.18;;;2.05;;
67248;SDS011;63247;54.300;18.592;2022-10-12T08:54:21;6.03;;;2.10;;
67248;SDS011;63247;54.300;18.592;2022-10-12T08:56:51;7.72;;;1.80;;
67248;SDS011;63247;54.300;18.592;2022-10-12T08:59:18;5.82;;;1.90;;
67248;SDS011;63247;54.300;18.592;2022-10-12T09:07:14;6.00;;;1.77;;
67248;SDS011;63247;54.300;18.592;2022-10-12T09:09:47;4.95;;;1.90;;
67248;SDS011;63247;54.300;18.592;2022-10-12T09:15:14;6.55;;;2.00;;
67248;SDS011;63247;54.300;18.592;2022-10-12T09:17:45;5.05;;;1.88;;
67248;SDS011;63247;54.300;18.592;2022-10-12T09:20:23;8.75;;;2.30;;
67248;SDS011;63247;54.300;18.592;2022-10-12T09:22:57;7.32;;;2.00;;
67248;SDS011;63247;54.300;18.592;2022-10-12T09:25:27;5.43;;;1.70;;
67248;SDS011;63247;54.300;18.592;2022-10-12T09:27:53;6.68;;;1.58;;
67248;SDS011;63247;54.300;18.592;2022-10-12T09:30:30;7.45;;;2.22;;
67248;SDS011;63247;54.300;18.592;2022-10-12T09:33:11;6.00;;;1.92;;
67248;SDS011;63247;54.300;18.592;2022-10-12T09:35:43;7.25;;;1.83;;
67248;SDS011;63247;54.300;18.592;2022-10-12T09:38:10;4.57;;;1.45;;
67248;SDS011;63247;54.300;18.592;2022-10-12T09:40:35;5.27;;;1.70;;
67248;SDS011;63247;54.300;18.592;2022-10-12T09:43:01;7.05;;;2.20;;
67248;SDS011;63247;54.300;18.592;2022-10-12T09:45:28;4.68;;;1.58;;
67248;SDS011;63247;54.300;18.592;2022-10-12T09:50:43;5.57;;;2.10;;
67248;SDS011;63247;54.300;18.592;2022-10-12T09:56:11;6.78;;;1.70;;
67248;SDS011;63247;54.300;18.592;2022-10-12T09:58:50;4.38;;;1.45;;
67248;SDS011;63247;54.300;18.592;2022-10-12T10:03:46;6.57;;;1.77;;
67248;SDS011;63247;54.300;18.592;2022-10-12T10:06:15;7.40;;;1.60;;
67248;SDS011;63247;54.300;18.592;2022-10-12T10:08:47;5.95;;;1.60;;
67248;SDS011;63247;54.300;18.592;2022-10-12T10:11:20;4.20;;;1.40;;
67248;SDS011;63247;54.300;18.592;2022-10-12T10:13:49;6.95;;;1.63;;
67248;SDS011;63247;54.300;18.592;2022-10-12T10:16:16;5.32;;;1.60;;
67248;SDS011;63247;54.300;18.592;2022-10-12T10:18:44;5.83;;;1.50;;
67248;SDS011;63247;54.300;18.592;2022-10-12T10:21:22;4.55;;;1.38;;
67248;SDS011;63247;54.300;18.592;2022-10-12T10:24:01;10.23;;;1.40;;
67248;SDS011;63247;54.300;18.592;2022-10-12T10:26:28;7.93;;;1.42;;
67248;SDS011;63247;54.300;18.592;2022-10-12T10:28:57;5.72;;;1.27;;
67248;SDS011;63247;54.300;18.592;2022-10-12T10:31:42;6.13;;;1.20;;
67248;SDS011;63247;54.300;18.592;2022-10-12T10:34:20;6.82;;;1.30;;
67248;SDS011;63247;54.300;18.592;2022-10-12T10:36:54;5.10;;;1.40;;
67248;SDS011;63247;54.300;18.592;2022-10-12T10:39:24;4.93;;;1.10;;
67248;SDS011;63247;54.300;18.592;2022-10-12T10:41:52;6.28;;;1.27;;
67248;SDS011;63247;54.300;18.592;2022-10-12T10:44:29;4.03;;;1.00;;
67248;SDS011;63247;54.300;18.592;2022-10-12T10:47:01;5.10;;;0.90;;
67248;SDS011;63247;54.300;18.592;2022-10-12T10:52:06;4.40;;;0.90;;
67248;SDS011;63247;54.300;18.592;2022-10-12T10:54:44;3.55;;;0.90;;
67248;SDS011;63247;54.300;18.592;2022-10-12T10:57:12;5.82;;;1.27;;
67248;SDS011;63247;54.300;18.592;2022-10-12T11:04:55;5.68;;;0.60;;
67248;SDS011;63247;54.300;18.592;2022-10-12T11:13:25;5.15;;;0.60;;
67248;SDS011;63247;54.300;18.592;2022-10-12T11:15:58;5.10;;;0.90;;
67248;SDS011;63247;54.300;18.592;2022-10-12T11:21:17;5.40;;;0.98;;
67248;SDS011;63247;54.300;18.592;2022-10-12T11:28:43;5.00;;;0.87;;
67248;SDS011;63247;54.300;18.592;2022-10-12T11:31:14;6.35;;;1.00;;
67248;SDS011;63247;54.300;18.592;2022-10-12T11:33:43;6.45;;;0.80;;
67248;SDS011;63247;54.300;18.592;2022-10-12T11:36:11;5.32;;;1.00;;
67248;SDS011;63247;54.300;18.592;2022-10-12T11:38:46;3.97;;;1.30;;
67248;SDS011;63247;54.300;18.592;2022-10-12T11:41:19;3.65;;;1.00;;
67248;SDS011;63247;54.300;18.592;2022-10-12T11:46:36;6.88;;;1.00;;
67248;SDS011;63247;54.300;18.592;2022-10-12T11:49:11;5.25;;;0.95;;
67248;SDS011;63247;54.300;18.592;2022-10-12T11:55:17;8.48;;;1.33;;
67248;SDS011;63247;54.300;18.592;2022-10-12T11:57:43;7.07;;;1.13;;
67248;SDS011;63247;54.300;18.592;2022-10-12T12:00:20;7.70;;;1.10;;
67248;SDS011;63247;54.300;18.592;2022-10-12T12:02:51;5.88;;;0.85;;
67248;SDS011;63247;54.300;18.592;2022-10-12T12:05:31;4.93;;;0.95;;
67248;SDS011;63247;54.300;18.592;2022-10-12T12:07:57;4.75;;;0.90;;
67248;SDS011;63247;54.300;18.592;2022-10-12T12:15:42;4.55;;;0.90;;
67248;SDS011;63247;54.300;18.592;2022-10-12T12:18:28;4.67;;;1.10;;
67248;SDS011;63247;54.300;18.592;2022-10-12T12:23:40;4.75;;;1.27;;
67248;SDS011;63247;54.300;18.592;2022-10-12T12:26:15;5.57;;;1.10;;
67248;SDS011;63247;54.300;18.592;2022-10-12T12:28:47;8.77;;;1.20;;
67248;SDS011;63247;54.300;18.592;2022-10-12T12:31:15;5.78;;;1.05;;
67248;SDS011;63247;54.300;18.592;2022-10-12T12:33:41;5.35;;;1.15;;
67248;SDS011;63247;54.300;18.592;2022-10-12T12:36:15;5.18;;;1.23;;
67248;SDS011;63247;54.300;18.592;2022-10-12T12:38:56;9.98;;;1.30;;
67248;SDS011;63247;54.300;18.592;2022-10-12T12:41:44;8.40;;;1.47;;
67248;SDS011;63247;54.300;18.592;2022-10-12T12:49:43;8.23;;;1.50;;
67248;SDS011;63247;54.300;18.592;2022-10-12T12:52:13;6.22;;;1.60;;
67248;SDS011;63247;54.300;18.592;2022-10-12T12:54:48;6.77;;;1.57;;
67248;SDS011;63247;54.300;18.592;2022-10-12T12:57:28;6.72;;;1.60;;
67248;SDS011;63247;54.300;18.592;2022-10-12T13:00:12;6.13;;;1.42;;
67248;SDS011;63247;54.300;18.592;2022-10-12T13:08:04;8.07;;;1.27;;
67248;SDS011;63247;54.300;18.592;2022-10-12T13:19:00;6.45;;;1.23;;
67248;SDS011;63247;54.300;18.592;2022-10-12T13:21:29;5.30;;;1.20;;
67248;SDS011;63247;54.300;18.592;2022-10-12T13:24:11;7.75;;;1.40;;
67248;SDS011;63247;54.300;18.592;2022-10-12T13:26:43;8.82;;;1.33;;
67248;SDS011;63247;54.300;18.592;2022-10-12T13:29:17;6.65;;;1.50;;
67248;SDS011;63247;54.300;18.592;2022-10-12T13:31:47;9.93;;;1.90;;
67248;SDS011;63247;54.300;18.592;2022-10-12T13:36:55;9.65;;;1.23;;
67248;SDS011;63247;54.300;18.592;2022-10-12T13:39:23;6.45;;;1.20;;
67248;SDS011;63247;54.300;18.592;2022-10-12T13:41:50;5.05;;;1.33;;
67248;SDS011;63247;54.300;18.592;2022-10-12T13:46:57;10.17;;;1.70;;
67248;SDS011;63247;54.300;18.592;2022-10-12T13:49:26;8.88;;;1.30;;
67248;SDS011;63247;54.300;18.592;2022-10-12T13:54:22;10.25;;;2.00;;
67248;SDS011;63247;54.300;18.592;2022-10-12T13:56:58;8.68;;;1.40;;
67248;SDS011;63247;54.300;18.592;2022-10-12T13:59:28;10.27;;;1.80;;
67248;SDS011;63247;54.300;18.592;2022-10-12T14:02:01;11.80;;;2.45;;
67248;SDS011;63247;54.300;18.592;2022-10-12T14:04:31;10.13;;;2.25;;
67248;SDS011;63247;54.300;18.592;2022-10-12T14:06:59;7.80;;;1.90;;
67248;SDS011;63247;54.300;18.592;2022-10-12T14:09:27;9.20;;;1.60;;
67248;SDS011;63247;54.300;18.592;2022-10-12T14:12:04;6.38;;;1.38;;
67248;SDS011;63247;54.300;18.592;2022-10-12T14:14:33;20.63;;;2.10;;
67248;SDS011;63247;54.300;18.592;2022-10-12T14:17:01;9.13;;;1.45;;
67248;SDS011;63247;54.300;18.592;2022-10-12T14:19:40;8.37;;;1.37;;
67248;SDS011;63247;54.300;18.592;2022-10-12T14:22:08;3.88;;;1.30;;
67248;SDS011;63247;54.300;18.592;2022-10-12T14:24:36;6.32;;;1.50;;
67248;SDS011;63247;54.300;18.592;2022-10-12T14:27:03;6.35;;;1.30;;
67248;SDS011;63247;54.300;18.592;2022-10-12T14:29:40;5.47;;;1.20;;
67248;SDS011;63247;54.300;18.592;2022-10-12T14:39:33;8.82;;;1.20;;
67248;SDS011;63247;54.300;18.592;2022-10-12T14:42:00;9.70;;;1.33;;
67248;SDS011;63247;54.300;18.592;2022-10-12T14:44:27;13.37;;;1.80;;
67248;SDS011;63247;54.300;18.592;2022-10-12T14:47:00;7.65;;;1.70;;
67248;SDS011;63247;54.300;18.592;2022-10-12T14:52:06;8.30;;;1.73;;
67248;SDS011;63247;54.300;18.592;2022-10-12T14:54:58;10.00;;;2.10;;
67248;SDS011;63247;54.300;18.592;2022-10-12T14:57:26;11.68;;;2.00;;
67248;SDS011;63247;54.300;18.592;2022-10-12T14:59:53;6.97;;;1.97;;
67248;SDS011;63247;54.300;18.592;2022-10-12T15:02:26;13.13;;;2.13;;
67248;SDS011;63247;54.300;18.592;2022-10-12T15:04:54;7.78;;;2.50;;
67248;SDS011;63247;54.300;18.592;2022-10-12T15:07:30;11.50;;;3.17;;
67248;SDS011;63247;54.300;18.592;2022-10-12T15:09:57;10.85;;;3.47;;
67248;SDS011;63247;54.300;18.592;2022-10-12T15:12:23;12.10;;;4.10;;
67248;SDS011;63247;54.300;18.592;2022-10-12T15:14:50;10.77;;;3.42;;
67248;SDS011;63247;54.300;18.592;2022-10-12T15:17:19;12.85;;;3.60;;
67248;SDS011;63247;54.300;18.592;2022-10-12T15:19:45;12.17;;;3.77;;
67248;SDS011;63247;54.300;18.592;2022-10-12T15:22:14;12.05;;;4.28;;
67248;SDS011;63247;54.300;18.592;2022-10-12T15:24:43;14.77;;;5.00;;
67248;SDS011;63247;54.300;18.592;2022-10-12T15:27:08;11.43;;;4.70;;
67248;SDS011;63247;54.300;18.592;2022-10-12T15:29:34;16.00;;;5.50;;
67248;SDS011;63247;54.300;18.592;2022-10-12T15:31:59;16.85;;;6.65;;
67248;SDS011;63247;54.300;18.592;2022-10-12T15:34:25;17.93;;;6.10;;
67248;SDS011;63247;54.300;18.592;2022-10-12T15:36:51;16.48;;;6.55;;
67248;SDS011;63247;54.300;18.592;2022-10-12T15:39:16;17.70;;;6.80;;
67248;SDS011;63247;54.300;18.592;2022-10-12T15:41:42;16.53;;;6.40;;
67248;SDS011;63247;54.300;18.592;2022-10-12T15:44:09;19.10;;;6.40;;
67248;SDS011;63247;54.300;18.592;2022-10-12T15:46:35;23.23;;;6.82;;
67248;SDS011;63247;54.300;18.592;2022-10-12T15:49:01;15.97;;;5.33;;
67248;SDS011;63247;54.300;18.592;2022-10-12T15:51:26;13.43;;;5.00;;
67248;SDS011;63247;54.300;18.592;2022-10-12T15:53:52;14.77;;;5.03;;
67248;SDS011;63247;54.300;18.592;2022-10-12T15:56:19;17.30;;;5.70;;
67248;SDS011;63247;54.300;18.592;2022-10-12T15:58:45;19.58;;;7.18;;
67248;SDS011;63247;54.300;18.592;2022-10-12T16:01:20;18.92;;;7.20;;
67248;SDS011;63247;54.300;18.592;2022-10-12T16:03:45;20.52;;;7.40;;
67248;SDS011;63247;54.300;18.592;2022-10-12T16:06:12;17.37;;;6.77;;
67248;SDS011;63247;54.300;18.592;2022-10-12T16:08:37;19.85;;;6.55;;
67248;SDS011;63247;54.300;18.592;2022-10-12T16:11:04;16.52;;;5.80;;
67248;SDS011;63247;54.300;18.592;2022-10-12T16:13:31;12.80;;;4.30;;
67248;SDS011;63247;54.300;18.592;2022-10-12T16:15:56;18.23;;;5.03;;
67248;SDS011;63247;54.300;18.592;2022-10-12T16:18:22;17.33;;;5.30;;
67248;SDS011;63247;54.300;18.592;2022-10-12T16:20:47;14.70;;;3.80;;
67248;SDS011;63247;54.300;18.592;2022-10-12T16:23:18;18.77;;;4.25;;
67248;SDS011;63247;54.300;18.592;2022-10-12T16:25:46;16.30;;;3.42;;
67248;SDS011;63247;54.300;18.592;2022-10-12T16:28:12;16.70;;;3.60;;